Time;durP1;ratioP1;P1;durP2;ratioP2;P2;SDS_P1;SDS_P2;PMS_P1;PMS_P2;Temp;Humidity;BMP_temperature;BMP_pressure;BME280_temperature;BME280_humidity;BME280_pressure;Samples;Min_cycle;Max_cycle;Signal;HPM_P1;HPM_P2
2022/09/03 00:01:11;;;;;;;2.78;1.13;;;17.20;88.40;;;-144.05;39.14;125687.94;4942376;29;20032;-88
2022/09/03 00:03:51;;;;;;;2.17;1.10;;;17.10;88.80;;;-144.05;39.18;125687.94;4943158;29;20205;-87
2022/09/03 00:07:10;;;;;;;2.00;1.10;;;17.10;89.30;;;-144.05;39.36;125687.94;4958398;29;20043;-87
2022/09/03 00:09:58;;;;;;;1.45;0.90;;;16.90;89.80;;;-144.05;39.46;125687.94;4943965;29;20036;-87
2022/09/03 00:12:41;;;;;;;1.90;1.02;;;16.90;90.10;;;-144.05;39.68;125687.94;4960751;28;20039;-87
2022/09/03 00:15:26;;;;;;;3.75;1.20;;;16.90;90.20;;;-144.05;39.63;125687.94;4943877;29;20079;-89
2022/09/03 00:18:09;;;;;;;1.67;1.20;;;16.80;90.20;;;-144.05;39.47;125687.94;4943043;29;20027;-88
2022/09/03 00:20:58;;;;;;;2.17;1.30;;;16.90;90.30;;;-144.05;39.57;125687.94;4942364;29;20033;-89
2022/09/03 00:23:33;;;;;;;2.50;1.00;;;16.90;90.40;;;-144.05;39.77;125687.94;4952458;28;20067;-85
2022/09/03 00:26:24;;;;;;;1.48;0.98;;;16.90;90.50;;;-144.05;39.69;125687.94;4956369;29;20028;-88
2022/09/03 00:29:33;;;;;;;3.35;1.00;;;16.90;90.60;;;-144.05;39.76;125687.94;4958797;28;20505;-88
2022/09/03 00:32:17;;;;;;;1.85;1.20;;;16.80;90.60;;;-144.05;39.62;125687.94;4942912;29;20091;-88
2022/09/03 00:34:59;;;;;;;1.70;1.00;;;16.80;90.70;;;-144.05;40.22;125687.94;4943581;29;20023;-89
2022/09/03 00:37:28;;;;;;;2.67;1.30;;;16.70;91.20;;;-144.05;40.19;125687.94;4941232;29;20110;-87
2022/09/03 00:39:56;;;;;;;2.42;1.42;;;16.60;91.30;;;-144.05;40.34;125687.94;4955554;28;20027;-88
2022/09/03 00:42:47;;;;;;;1.50;1.00;;;16.50;91.50;;;-144.05;40.51;125687.94;4941652;29;20035;-88
2022/09/03 00:45:38;;;;;;;2.38;1.10;;;16.40;91.90;;;-144.05;40.83;125687.94;4959186;28;20032;-86
2022/09/03 00:48:32;;;;;;;2.40;1.10;;;16.30;92.10;;;-144.05;41.00;125687.94;4943373;29;20055;-87
2022/09/03 00:51:46;;;;;;;4.18;1.08;;;16.30;92.20;;;-144.05;40.60;125687.94;4941474;29;20102;-87
2022/09/03 00:54:49;;;;;;;2.70;1.20;;;16.40;92.10;;;-144.05;40.68;125687.94;4958100;28;20114;-87
2022/09/03 00:58:10;;;;;;;2.80;1.23;;;16.30;92.40;;;-144.05;40.67;125687.94;4941540;29;20531;-86
2022/09/03 01:00:45;;;;;;;2.97;0.93;;;16.30;92.60;;;-144.05;41.29;125687.94;4940936;29;20479;-87
2022/09/03 01:03:33;;;;;;;2.85;1.10;;;16.10;93.20;;;-144.05;41.43;125687.94;4941253;29;20451;-87
2022/09/03 01:06:20;;;;;;;2.00;0.85;;;16.10;93.50;;;-144.05;41.39;125687.94;4941982;29;20031;-89
2022/09/03 01:09:24;;;;;;;2.25;1.02;;;16.00;93.60;;;-144.05;41.46;125687.94;4940518;29;20072;-86
2022/09/03 01:12:17;;;;;;;1.65;1.02;;;16.10;93.70;;;-144.05;41.36;125687.94;4940714;29;20035;-89
2022/09/03 01:15:19;;;;;;;2.72;1.15;;;16.10;93.80;;;-144.05;41.46;125687.94;4941803;29;20281;-88
2022/09/03 01:18:21;;;;;;;4.30;1.17;;;16.10;93.90;;;-144.05;41.48;125687.94;4941118;29;20032;-86
2022/09/03 01:21:17;;;;;;;1.98;1.00;;;16.20;94.10;;;-144.05;41.21;125687.94;4942137;29;20087;-89
2022/09/03 01:23:57;;;;;;;4.80;1.75;;;16.20;94.10;;;-144.05;41.19;125687.94;4943174;29;20035;-87
2022/09/03 01:26:51;;;;;;;1.55;1.02;;;16.20;94.30;;;-144.05;41.41;125687.94;4943689;29;20071;-87
2022/09/03 01:29:41;;;;;;;1.63;0.90;;;16.10;94.30;;;-144.05;41.29;125687.94;4945685;29;20032;-87
2022/09/03 01:32:50;;;;;;;3.67;0.95;;;16.10;94.40;;;-144.05;41.46;125687.94;4943966;29;20032;-88
2022/09/03 01:36:02;;;;;;;2.25;0.90;;;16.10;94.60;;;-144.05;41.51;125687.94;4942911;29;20040;-87
2022/09/03 01:39:00;;;;;;;3.60;1.13;;;16.00;94.90;;;-144.05;41.77;125687.94;4943264;29;20038;-88
2022/09/03 01:42:24;;;;;;;3.67;1.30;;;16.00;95.20;;;-144.05;41.76;125687.94;4942013;29;20047;-86
2022/09/03 01:45:21;;;;;;;1.63;1.20;;;16.00;95.40;;;-144.05;42.65;125687.94;4942272;29;20126;-87
2022/09/03 01:48:15;;;;;;;;;;;15.80;96.90;;;-144.05;44.08;125687.94;4956332;28;20112;-87
2022/09/03 01:51:05;;;;;;;2.67;1.60;;;15.50;99.20;;;-144.05;44.70;125687.94;4957453;29;19935;-87
2022/09/03 01:53:31;;;;;;;2.92;1.45;;;15.30;99.90;;;-144.05;45.47;125687.94;4940298;29;20039;-87
2022/09/03 01:56:49;;;;;;;2.90;1.50;;;15.00;99.90;;;-144.05;46.21;125687.94;4940349;29;20101;-85
2022/09/03 02:00:06;;;;;;;4.57;1.70;;;14.80;99.90;;;-144.05;46.22;125687.94;4941792;29;20039;-88
2022/09/03 02:02:35;;;;;;;3.72;1.48;;;14.70;99.90;;;-144.05;45.80;125687.94;4941025;28;20043;-86
2022/09/03 02:05:24;;;;;;;2.20;1.58;;;14.70;99.90;;;-144.05;46.36;125687.94;4940745;29;20063;-87
2022/09/03 02:08:09;;;;;;;6.22;1.88;;;14.60;99.90;;;-144.05;47.28;125687.94;4940498;29;20039;-87
2022/09/03 02:10:50;;;;;;;6.30;2.00;;;14.40;99.90;;;-144.05;47.88;125687.94;4941306;29;20091;-86
2022/09/03 02:13:31;;;;;;;2.90;1.52;;;14.30;99.90;;;-144.05;48.49;125687.94;4940799;29;20479;-88
2022/09/03 02:16:11;;;;;;;2.15;1.48;;;14.10;99.90;;;-144.05;48.25;125687.94;4941666;29;20027;-88
2022/09/03 02:18:50;;;;;;;5.78;1.60;;;14.00;99.90;;;-144.05;48.28;125687.94;4940842;29;20039;-88
2022/09/03 02:21:43;;;;;;;4.95;1.80;;;13.90;99.90;;;-144.05;49.31;125687.94;4941656;29;20027;-88
2022/09/03 02:24:12;;;;;;;4.60;1.88;;;13.70;99.90;;;-144.05;50.17;125687.94;4956719;29;20047;-87
2022/09/03 02:26:40;;;;;;;2.67;1.48;;;13.50;99.90;;;-144.05;50.56;125687.94;4940264;28;20090;-90
2022/09/03 02:29:06;;;;;;;2.13;1.50;;;13.40;99.90;;;-144.05;51.05;125687.94;4956706;29;20038;-86
2022/09/03 02:31:33;;;;;;;3.30;1.70;;;13.30;99.90;;;-144.05;51.54;125687.94;4947610;29;20035;-88
2022/09/03 02:33:59;;;;;;;2.55;1.80;;;13.20;99.90;;;-144.05;51.97;125687.94;4957437;28;20127;-87
2022/09/03 02:36:44;;;;;;;3.53;1.40;;;13.10;99.90;;;-144.05;52.15;125687.94;4946732;29;20027;-88
2022/09/03 02:39:15;;;;;;;5.95;1.95;;;13.10;99.90;;;-144.05;51.46;125687.94;4932054;29;20028;-87
2022/09/03 02:41:43;;;;;;;2.25;1.55;;;13.30;99.90;;;-144.05;50.89;125687.94;4946762;29;20028;-87
2022/09/03 02:44:30;;;;;;;3.15;1.65;;;13.30;99.90;;;-144.05;51.36;125687.94;4961603;29;20126;-86
2022/09/03 02:47:16;;;;;;;1.92;1.40;;;13.20;99.90;;;-144.05;51.49;125687.94;4947101;29;20070;-87
2022/09/03 02:49:46;;;;;;;2.88;1.83;;;13.20;99.90;;;-144.05;50.85;125687.94;4947106;29;20122;-87
2022/09/03 02:52:16;;;;;;;3.00;1.58;;;13.40;99.90;;;-144.05;50.43;125687.94;4946234;28;20035;-87
2022/09/03 02:55:18;;;;;;;6.63;2.17;;;13.50;99.90;;;-144.05;50.20;125687.94;4944171;29;20028;-89
2022/09/03 02:57:52;;;;;;;6.68;1.83;;;13.60;99.90;;;-144.05;50.20;125687.94;4929328;29;20458;-88
2022/09/03 03:00:49;;;;;;;5.70;1.77;;;13.60;99.90;;;-144.05;50.53;125687.94;4944826;29;20028;-86
2022/09/03 03:03:30;;;;;;;4.78;1.92;;;13.60;99.90;;;-144.05;50.15;125687.94;4960862;28;20028;-87
2022/09/03 03:06:05;;;;;;;5.10;1.73;;;13.60;99.90;;;-144.05;50.50;125687.94;4961154;28;20051;-88
2022/09/03 03:08:51;;;;;;;3.67;1.90;;;13.60;99.90;;;-144.05;50.85;125687.94;4948660;29;20122;-87
2022/09/03 03:12:29;;;;;;;7.07;2.60;;;13.50;99.90;;;-144.05;50.78;125687.94;4952566;29;20043;-89
2022/09/03 03:16:12;;;;;;;6.65;2.60;;;13.40;99.90;;;-144.05;50.18;125687.94;4954815;29;20115;-89
2022/09/03 03:18:39;;;;;;;5.75;2.03;;;13.50;99.90;;;-144.05;49.72;125687.94;4951518;29;20027;-88
2022/09/03 03:21:13;;;;;;;4.35;2.42;;;13.60;99.90;;;-144.05;49.88;125687.94;4934796;29;20060;-88
2022/09/03 03:23:56;;;;;;;5.05;2.15;;;13.70;99.90;;;-144.05;49.90;125687.94;4935201;29;20040;-89
2022/09/03 03:27:18;;;;;;;5.60;2.58;;;13.80;99.90;;;-144.05;50.03;125687.94;4968467;28;20063;-87
2022/09/03 03:29:51;;;;;;;5.60;2.25;;;13.70;99.90;;;-144.05;50.34;125687.94;4951338;29;20027;-89
2022/09/03 03:32:23;;;;;;;4.80;2.10;;;13.60;99.90;;;-144.05;50.65;125687.94;4952576;29;20039;-86
2022/09/03 03:34:54;;;;;;;4.53;2.10;;;13.50;99.90;;;-144.05;50.68;125687.94;4951574;29;20031;-87
2022/09/03 03:37:21;;;;;;;4.55;1.88;;;13.40;99.90;;;-144.05;50.61;125687.94;4950745;29;20131;-87
2022/09/03 03:39:48;;;;;;;1.83;1.30;;;13.50;99.90;;;-144.05;50.63;125687.94;4950296;29;20027;-88
2022/09/03 03:42:17;;;;;;;3.47;1.30;;;13.40;99.90;;;-144.05;50.25;125687.94;4964829;28;20043;-87
2022/09/03 03:45:28;;;;;;;4.30;1.92;;;13.50;99.90;;;-144.05;50.31;125687.94;4966105;28;20074;-87
2022/09/03 03:48:21;;;;;;;7.65;2.03;;;13.50;99.90;;;-144.05;50.40;125687.94;4932721;29;20036;-86
2022/09/03 03:51:08;;;;;;;3.13;1.67;;;13.50;99.90;;;-144.05;50.25;125687.94;4937787;29;20114;-88
2022/09/03 03:54:06;;;;;;;5.43;1.85;;;13.50;99.90;;;-144.05;50.19;125687.94;4937687;29;20372;-87
2022/09/03 03:56:45;;;;;;;2.10;1.27;;;13.50;99.90;;;-144.05;50.48;125687.94;4941482;28;20054;-88
2022/09/03 03:59:18;;;;;;;3.88;1.80;;;13.40;99.90;;;-144.05;50.70;125687.94;4938283;29;20239;-87
2022/09/03 04:02:20;;;;;;;3.42;1.40;;;13.40;99.90;;;-144.05;50.63;125687.94;4939932;29;20111;-88
2022/09/03 04:05:51;;;;;;;4.00;1.60;;;13.40;99.90;;;-144.05;50.24;125687.94;4954620;29;20362;-88
2022/09/03 04:08:25;;;;;;;1.98;1.33;;;13.50;99.90;;;-144.05;50.27;125687.94;4926054;29;20523;-86
2022/09/03 04:11:04;;;;;;;5.97;1.92;;;13.50;99.90;;;-144.05;50.22;125687.94;4938418;29;20402;-87
2022/09/03 04:13:56;;;;;;;6.90;1.77;;;13.50;99.90;;;-144.05;50.50;125687.94;4953646;28;20027;-87
2022/09/03 04:16:55;;;;;;;3.35;1.80;;;13.50;99.90;;;-144.05;50.68;125687.94;4954212;28;20027;-87
2022/09/03 04:19:47;;;;;;;4.82;1.50;;;13.40;99.90;;;-144.05;50.46;125687.94;4938832;29;20430;-87
2022/09/03 04:22:14;;;;;;;3.97;1.63;;;13.40;99.90;;;-144.05;50.66;125687.94;4938476;29;20440;-87
2022/09/03 04:24:41;;;;;;;5.93;1.83;;;13.40;99.90;;;-144.05;50.53;125687.94;4938745;29;20048;-87
2022/09/03 04:27:07;;;;;;;4.40;1.88;;;13.40;99.90;;;-144.05;50.63;125687.94;4938717;28;20051;-87
2022/09/03 04:29:35;;;;;;;3.75;1.98;;;13.30;99.90;;;-144.05;50.59;125687.94;4956215;28;20561;-88
2022/09/03 04:34:46;;;;;;;3.17;1.60;;;13.30;99.90;;;-144.05;50.36;125687.94;4959769;28;20055;-87
2022/09/03 04:37:15;;;;;;;3.97;1.60;;;13.40;99.90;;;-144.05;50.47;125687.94;4953437;28;20027;-83
2022/09/03 04:39:41;;;;;;;3.35;1.67;;;13.40;99.90;;;-144.05;50.50;125687.94;4947446;29;20316;-88
2022/09/03 04:42:06;;;;;;;5.25;1.58;;;13.30;99.90;;;-144.05;50.41;125687.94;4945426;29;20035;-85
2022/09/03 04:44:36;;;;;;;4.93;1.40;;;13.40;99.90;;;-144.05;49.98;125687.94;4945770;29;20043;-81
2022/09/03 04:47:02;;;;;;;1.75;1.17;;;13.40;99.90;;;-144.05;50.08;125687.94;4975139;28;20032;-83
2022/09/03 04:49:28;;;;;;;4.43;1.80;;;13.40;99.90;;;-144.05;50.12;125687.94;4960280;28;20051;-81
2022/09/03 04:51:54;;;;;;;3.75;1.50;;;13.40;99.90;;;-144.05;49.98;125687.94;4959185;28;20055;-79
2022/09/03 04:54:20;;;;;;;3.58;1.30;;;13.40;99.90;;;-144.05;49.66;125687.94;4954247;28;20044;-87
2022/09/03 04:56:48;;;;;;;2.65;1.10;;;13.40;99.90;;;-144.05;49.92;125687.94;4939330;29;20032;-86
2022/09/03 04:59:14;;;;;;;2.05;1.38;;;13.40;99.90;;;-144.05;49.66;125687.94;4939476;29;20036;-87
2022/09/03 05:01:42;;;;;;;3.25;1.70;;;13.50;99.90;;;-144.05;49.89;125687.94;4940070;29;20038;-84
2022/09/03 05:04:09;;;;;;;1.80;1.10;;;13.50;99.90;;;-144.05;49.76;125687.94;4940437;29;20039;-87
2022/09/03 05:06:36;;;;;;;3.58;1.40;;;13.50;99.90;;;-144.05;49.78;125687.94;4939311;29;20074;-87
2022/09/03 05:09:04;;;;;;;3.20;1.10;;;13.40;99.90;;;-144.05;49.80;125687.94;4939756;29;20050;-84
2022/09/03 05:11:30;;;;;;;2.08;1.05;;;13.50;99.90;;;-144.05;49.46;125687.94;4939249;29;20038;-88
2022/09/03 05:13:59;;;;;;;2.28;1.27;;;13.50;99.90;;;-144.05;49.66;125687.94;4937788;29;20036;-84
2022/09/03 05:16:30;;;;;;;1.58;1.20;;;13.50;99.90;;;-144.05;49.86;125687.94;4941964;29;20365;-89
2022/09/03 05:18:59;;;;;;;3.35;1.38;;;13.50;99.90;;;-144.05;49.88;125687.94;4938035;29;20059;-85
2022/09/03 05:21:27;;;;;;;1.98;1.27;;;13.50;99.90;;;-144.05;49.88;125687.94;4940653;29;20377;-87
2022/09/03 05:23:56;;;;;;;3.30;1.08;;;13.50;99.90;;;-144.05;49.64;125687.94;4953947;28;20027;-87
2022/09/03 05:26:31;;;;;;;4.45;1.48;;;13.60;99.90;;;-144.05;49.79;125687.94;4943155;29;20070;-90
2022/09/03 05:29:01;;;;;;;3.85;1.40;;;13.60;99.90;;;-144.05;49.62;125687.94;4940627;29;20032;-88
2022/09/03 05:31:30;;;;;;;2.53;1.20;;;13.50;99.90;;;-144.05;49.77;125687.94;4937386;29;20032;-89
2022/09/03 05:34:02;;;;;;;2.92;1.10;;;13.60;99.90;;;-144.05;49.78;125687.94;4955192;29;20114;-89
2022/09/03 05:36:34;;;;;;;3.13;1.30;;;13.60;99.90;;;-144.05;49.99;125687.94;4937213;29;20036;-88
2022/09/03 05:39:03;;;;;;;3.03;1.33;;;13.70;99.90;;;-144.05;49.54;125687.94;4955595;28;20035;-89
2022/09/03 05:41:31;;;;;;;2.75;1.20;;;13.80;99.90;;;-144.05;48.87;125687.94;4939780;29;20024;-87
2022/09/03 05:44:00;;;;;;;2.70;1.20;;;13.90;99.90;;;-144.05;48.64;125687.94;4938577;29;20066;-85
2022/09/03 05:46:32;;;;;;;2.08;1.15;;;14.00;99.90;;;-144.05;48.75;125687.94;4938114;29;20031;-88
2022/09/03 05:49:01;;;;;;;1.63;0.98;;;14.10;99.90;;;-144.05;48.23;125687.94;4938294;29;20063;-88
2022/09/03 05:51:29;;;;;;;2.03;1.10;;;14.30;99.90;;;-144.05;47.81;125687.94;4954652;29;20051;-87
2022/09/03 05:53:57;;;;;;;3.92;1.27;;;14.40;99.90;;;-144.05;47.63;125687.94;4939295;29;20123;-85
2022/09/03 05:56:28;;;;;;;2.88;1.27;;;14.50;99.90;;;-144.05;47.07;125687.94;4953803;28;20070;-86
2022/09/03 05:59:00;;;;;;;2.08;1.08;;;14.70;99.90;;;-144.05;46.61;125687.94;4937051;29;20027;-88
2022/09/03 06:01:35;;;;;;;2.80;1.00;;;14.80;99.90;;;-144.05;46.16;125687.94;4937553;29;20031;-88
2022/09/03 06:04:12;;;;;;;4.07;1.27;;;15.00;99.90;;;-144.05;45.08;125687.94;4937738;29;20114;-87
2022/09/03 06:06:43;;;;;;;2.67;1.23;;;15.20;99.90;;;-144.05;44.49;125687.94;4952994;28;20035;-87
2022/09/03 06:09:14;;;;;;;2.20;0.90;;;15.40;99.90;;;-144.05;44.10;125687.94;4939970;29;20075;-88
2022/09/03 06:11:42;;;;;;;2.17;1.10;;;15.60;99.90;;;-144.05;43.27;125687.94;4940378;29;20480;-87
2022/09/03 06:14:12;;;;;;;2.35;0.90;;;15.80;99.90;;;-144.05;42.79;125687.94;4953294;28;20043;-89
2022/09/03 06:16:48;;;;;;;1.52;0.77;;;16.10;99.90;;;-144.05;42.46;125687.94;4954123;29;20028;-88
2022/09/03 06:19:14;;;;;;;2.60;0.90;;;16.30;99.90;;;-144.05;41.12;125687.94;4939917;29;20487;-87
2022/09/03 06:21:44;;;;;;;3.88;1.15;;;16.60;99.90;;;-144.05;40.64;125687.94;4955062;28;20044;-87
2022/09/03 06:24:22;;;;;;;3.83;1.10;;;16.80;99.90;;;-144.05;40.04;125687.94;4940733;29;20035;-87
2022/09/03 06:26:49;;;;;;;2.55;1.20;;;17.00;99.90;;;-144.05;39.60;125687.94;4956573;29;20064;-88
2022/09/03 06:29:17;;;;;;;6.10;1.48;;;17.20;99.90;;;-144.05;39.41;125687.94;4937653;29;20115;-89
2022/09/03 06:31:43;;;;;;;1.42;1.08;;;17.60;99.90;;;-144.05;38.94;125687.94;4939707;29;20037;-87
2022/09/03 06:34:11;;;;;;;1.52;1.10;;;17.90;99.90;;;-144.05;38.62;125687.94;4955579;29;20140;-87
2022/09/03 06:36:37;;;;;;;1.50;1.00;;;18.10;99.90;;;-144.05;38.52;125687.94;4947568;28;20050;-80
2022/09/03 06:39:03;;;;;;;2.10;1.20;;;18.40;99.90;;;-144.05;38.62;125687.94;4948056;28;20095;-82
2022/09/03 06:41:34;;;;;;;3.53;1.30;;;18.50;99.90;;;-144.05;38.44;125687.94;4936788;29;20040;-88
2022/09/03 06:44:10;;;;;;;2.30;1.15;;;18.70;99.90;;;-144.05;38.38;125687.94;4940255;29;20496;-88
2022/09/03 06:46:41;;;;;;;4.93;1.55;;;18.90;99.90;;;-144.05;37.67;125687.94;4939833;29;20036;-89
2022/09/03 06:49:08;;;;;;;1.35;1.20;;;19.00;99.90;;;-144.05;38.03;125687.94;4939431;29;20514;-85
2022/09/03 06:51:37;;;;;;;2.13;1.13;;;19.00;99.90;;;-144.05;38.22;125687.94;4954950;28;20550;-87
2022/09/03 06:54:08;;;;;;;4.20;1.23;;;19.00;99.90;;;-144.05;38.18;125687.94;4938186;29;20044;-90
2022/09/03 06:56:37;;;;;;;1.40;1.10;;;19.10;99.90;;;-144.05;38.02;125687.94;4938765;29;20042;-89
2022/09/03 06:59:16;;;;;;;4.00;1.30;;;19.30;99.90;;;-144.05;37.75;125687.94;4941625;29;20042;-88
2022/09/03 07:01:44;;;;;;;4.78;1.33;;;19.30;99.90;;;-144.05;37.54;125687.94;4956831;28;20488;-87
2022/09/03 07:04:15;;;;;;;1.35;1.08;;;19.40;99.90;;;-144.05;37.67;125687.94;4959178;29;20038;-88
2022/09/03 07:06:46;;;;;;;3.85;1.40;;;19.50;99.90;;;-144.05;37.44;125687.94;4942664;29;20035;-87
2022/09/03 07:09:14;;;;;;;4.07;1.50;;;19.60;99.90;;;-144.05;36.98;125687.94;4940915;29;20051;-88
2022/09/03 07:11:45;;;;;;;3.45;1.05;;;19.90;99.90;;;-144.05;37.05;125687.94;4960717;29;20079;-90
2022/09/03 07:14:13;;;;;;;2.90;1.30;;;19.90;99.90;;;-144.05;36.77;125687.94;4947710;29;20320;-88
2022/09/03 07:16:41;;;;;;;3.72;1.13;;;20.10;99.90;;;-144.05;36.06;125687.94;4941963;29;20032;-88
2022/09/03 07:19:09;;;;;;;3.45;1.10;;;20.30;99.90;;;-144.05;36.44;125687.94;4941446;29;20395;-89
2022/09/03 07:21:36;;;;;;;1.98;1.00;;;20.50;99.90;;;-144.05;36.07;125687.94;4942135;29;20162;-87
2022/09/03 07:24:05;;;;;;;3.50;1.27;;;20.60;99.90;;;-144.05;35.99;125687.94;4941434;29;20482;-88
2022/09/03 07:26:39;;;;;;;2.10;1.20;;;20.80;99.90;;;-144.05;36.27;125687.94;4941347;29;20031;-87
2022/09/03 07:29:06;;;;;;;3.20;1.35;;;21.00;99.90;;;-144.05;35.45;125687.94;4942397;29;20031;-88
2022/09/03 07:31:38;;;;;;;2.10;1.48;;;21.10;99.00;;;-144.05;35.40;125687.94;4940782;29;20051;-86
2022/09/03 07:34:11;;;;;;;2.92;1.45;;;21.30;98.70;;;-144.05;35.25;125687.94;4940360;29;20442;-89
2022/09/03 07:36:42;;;;;;;3.70;1.17;;;21.40;98.50;;;-144.05;34.74;125687.94;4940322;29;20027;-89
2022/09/03 07:39:11;;;;;;;2.40;1.02;;;21.60;98.00;;;-144.05;34.88;125687.94;4939149;29;20032;-88
2022/09/03 07:41:43;;;;;;;1.83;0.98;;;21.70;97.40;;;-144.05;34.72;125687.94;4936687;29;20063;-87
2022/09/03 07:44:15;;;;;;;2.60;1.10;;;21.80;97.30;;;-144.05;34.78;125687.94;4937086;29;20472;-87
2022/09/03 07:46:42;;;;;;;3.17;1.13;;;21.80;96.80;;;-144.05;34.31;125687.94;4936904;29;20036;-85
2022/09/03 07:49:09;;;;;;;1.17;0.82;;;21.90;96.70;;;-144.05;34.70;125687.94;4936587;29;20091;-86
2022/09/03 07:51:38;;;;;;;1.20;1.00;;;22.10;96.80;;;-144.05;34.04;125687.94;4936159;29;20023;-86
2022/09/03 07:54:09;;;;;;;2.70;0.80;;;22.20;96.00;;;-144.05;33.69;125687.94;4937670;29;20043;-87
2022/09/03 07:56:38;;;;;;;2.15;0.93;;;22.40;95.50;;;-144.05;33.65;125687.94;4937346;29;20406;-88
2022/09/03 07:59:06;;;;;;;2.35;1.35;;;22.60;95.00;;;-144.05;33.63;125687.94;4937469;29;20023;-85
2022/09/03 08:01:34;;;;;;;1.98;1.10;;;22.70;95.20;;;-144.05;33.75;125687.94;4938213;29;20036;-87
2022/09/03 08:04:03;;;;;;;3.33;1.38;;;23.00;95.40;;;-144.05;33.46;125687.94;4938165;29;20059;-87
2022/09/03 08:06:32;;;;;;;2.28;1.00;;;23.10;94.40;;;-144.05;33.64;125687.94;4937965;29;20059;-85
2022/09/03 08:09:07;;;;;;;3.22;1.17;;;23.00;94.30;;;-144.05;33.35;125687.94;4937686;29;20032;-85
2022/09/03 08:11:39;;;;;;;2.22;1.20;;;23.00;93.50;;;-144.05;33.40;125687.94;4937532;29;20538;-83
2022/09/03 08:14:09;;;;;;;1.42;1.15;;;23.10;93.60;;;-144.05;32.94;125687.94;4937674;29;20050;-88
2022/09/03 08:16:46;;;;;;;4.30;1.15;;;23.00;92.80;;;-144.05;33.21;125687.94;4937163;29;20123;-86
2022/09/03 08:19:21;;;;;;;4.38;1.15;;;23.00;93.10;;;-144.05;33.13;125687.94;4952486;29;20094;-85
2022/09/03 08:21:47;;;;;;;2.15;0.98;;;23.00;92.90;;;-144.05;33.32;125687.94;4937438;29;20040;-87
2022/09/03 08:24:20;;;;;;;3.40;1.13;;;23.30;93.40;;;-144.05;32.64;125687.94;4937816;29;20531;-83
2022/09/03 08:26:46;;;;;;;1.48;0.93;;;23.30;92.10;;;-144.05;33.94;125687.94;4938050;29;20046;-89
2022/09/03 08:29:12;;;;;;;3.28;1.05;;;22.90;93.50;;;-144.05;34.53;125687.94;4953604;29;20031;-84
2022/09/03 08:31:38;;;;;;;2.03;1.00;;;22.60;93.90;;;-144.05;35.10;125687.94;4937622;29;20074;-85
2022/09/03 08:34:06;;;;;;;4.70;1.27;;;22.30;94.40;;;-144.05;35.29;125687.94;4937800;29;20067;-87
2022/09/03 08:36:37;;;;;;;2.72;1.05;;;22.10;95.00;;;-144.05;34.57;125687.94;4937831;29;20175;-88
2022/09/03 08:39:08;;;;;;;1.77;1.23;;;22.40;94.10;;;-144.05;34.74;125687.94;4955052;28;20028;-87
2022/09/03 08:42:51;;;;;;;2.05;1.13;;;22.20;94.00;;;-144.05;35.28;125687.94;4949705;28;20042;-82
2022/09/03 08:45:20;;;;;;;3.30;1.23;;;22.20;94.70;;;-144.05;35.40;125687.94;4934651;29;20044;-88
2022/09/03 08:48:00;;;;;;;3.60;1.02;;;22.00;95.30;;;-144.05;35.21;125687.94;4941398;28;20058;-86
2022/09/03 08:50:40;;;;;;;3.25;1.17;;;22.00;94.60;;;-144.05;35.29;125687.94;4937110;29;20492;-85
2022/09/03 08:53:28;;;;;;;2.67;1.10;;;22.30;95.30;;;-144.05;35.52;125687.94;4952600;28;20031;-84
2022/09/03 08:56:26;;;;;;;3.80;1.20;;;22.30;95.40;;;-144.05;34.95;125687.94;4952891;29;20032;-83
2022/09/03 08:58:53;;;;;;;4.10;1.10;;;22.90;95.10;;;-144.05;33.93;125687.94;4937635;29;20028;-86
2022/09/03 09:02:24;;;;;;;2.67;0.93;;;23.10;93.30;;;-144.05;33.35;125687.94;4952409;29;20023;-86
2022/09/03 09:05:26;;;;;;;2.80;1.00;;;23.40;92.80;;;-144.05;33.65;125687.94;4935235;29;20031;-85
2022/09/03 09:08:22;;;;;;;1.55;1.00;;;23.90;93.50;;;-144.05;32.10;125687.94;4936080;29;20031;-85
2022/09/03 09:11:13;;;;;;;;;;;24.70;91.80;;;-144.05;31.37;125687.94;4952164;29;20514;-84
2022/09/03 09:13:58;;;;;;;2.63;0.90;;;25.30;90.90;;;-144.05;30.15;125687.94;4935770;29;19911;-84
2022/09/03 09:17:38;;;;;;;2.17;0.90;;;25.70;86.80;;;-144.05;30.46;125687.94;4935451;29;20514;-88
2022/09/03 09:21:11;;;;;;;2.88;1.10;;;25.90;87.00;;;-144.05;29.52;125687.94;4952422;29;20046;-87
2022/09/03 09:23:50;;;;;;;2.15;0.98;;;26.30;82.90;;;-144.05;29.74;125687.94;4951446;29;20039;-87
2022/09/03 09:26:21;;;;;;;1.98;1.00;;;26.20;80.70;;;-144.05;29.65;125687.94;4935263;29;20503;-87
2022/09/03 09:29:04;;;;;;;2.08;0.88;;;26.10;79.80;;;-144.05;29.52;125687.94;4935269;29;20031;-87
2022/09/03 09:31:30;;;;;;;3.05;1.10;;;26.40;79.70;;;-144.05;29.13;125687.94;4935281;29;20039;-88
2022/09/03 09:34:10;;;;;;;2.38;0.90;;;26.50;77.60;;;-144.05;28.98;125687.94;4935129;29;20032;-90
2022/09/03 09:36:56;;;;;;;2.13;1.05;;;26.40;76.20;;;-144.05;30.21;125687.94;4935447;29;20109;-87
2022/09/03 09:39:23;;;;;;;2.15;1.10;;;26.50;79.80;;;-144.05;29.17;125687.94;4935958;29;20032;-89
2022/09/03 09:42:08;;;;;;;1.65;1.10;;;26.70;77.20;;;-144.05;28.87;125687.94;4934622;29;20396;-87
2022/09/03 09:44:41;;;;;;;3.00;1.07;;;26.90;76.50;;;-144.05;29.63;125687.94;4934817;29;20035;-84
2022/09/03 09:47:37;;;;;;;2.80;1.10;;;26.90;77.10;;;-144.05;29.75;125687.94;4951566;29;20331;-89
2022/09/03 09:50:24;;;;;;;4.95;1.00;;;26.80;76.90;;;-144.05;29.70;125687.94;4936246;29;20028;-89
2022/09/03 09:53:13;;;;;;;2.13;0.98;;;26.80;76.50;;;-144.05;29.32;125687.94;4940613;29;20055;-87
2022/09/03 09:56:09;;;;;;;2.33;1.02;;;27.10;75.60;;;-144.05;28.73;125687.94;4955708;29;20032;-87
2022/09/03 09:58:41;;;;;;;2.97;1.10;;;27.30;74.50;;;-144.05;29.51;125687.94;4937431;29;20056;-89
2022/09/03 10:38:16;;;;;;;4.00;1.30;;;28.20;70.10;;;-144.05;28.03;125687.94;4953727;29;19922;-86
2022/09/03 10:40:49;;;;;;;1.40;1.08;;;28.30;71.00;;;-144.05;28.60;125687.94;4950736;29;20075;-91
2022/09/03 10:43:43;;;;;;;2.20;1.20;;;28.00;69.40;;;-144.05;29.06;125687.94;4935842;29;20066;-87
2022/09/03 10:46:36;;;;;;;3.22;1.25;;;27.90;71.10;;;-144.05;28.76;125687.94;4940096;28;20036;-84
2022/09/03 10:49:48;;;;;;;3.85;1.30;;;27.90;69.50;;;-144.05;29.14;125687.94;4957051;28;20032;-85
2022/09/03 10:52:29;;;;;;;4.45;1.30;;;27.70;69.30;;;-144.05;28.59;125687.94;4935791;29;20140;-87
2022/09/03 10:55:59;;;;;;;3.85;1.20;;;27.70;69.30;;;-144.05;28.59;125687.94;4935801;29;20059;-84
2022/09/03 10:59:50;;;;;;;1.42;0.93;;;28.00;68.40;;;-144.05;28.00;125687.94;4936409;29;20404;-87
2022/09/03 11:02:49;;;;;;;2.17;1.02;;;28.50;68.60;;;-144.05;27.69;125687.94;4935056;29;20047;-85
2022/09/03 11:05:28;;;;;;;3.55;1.20;;;28.80;67.40;;;-144.05;28.56;125687.94;4935070;29;20488;-86
2022/09/03 11:08:30;;;;;;;3.67;1.20;;;28.60;68.90;;;-144.05;28.38;125687.94;4935226;29;20145;-85
2022/09/03 11:11:33;;;;;;;2.13;0.88;;;28.50;66.80;;;-144.05;28.55;125687.94;4950754;29;20023;-86
2022/09/03 11:14:21;;;;;;;3.30;1.30;;;28.30;68.30;;;-144.05;28.69;125687.94;4935084;29;20042;-87
2022/09/03 11:17:04;;;;;;;1.27;1.17;;;28.00;67.40;;;-144.05;29.06;125687.94;4951507;29;20166;-88
2022/09/03 11:19:49;;;;;;;2.78;1.08;;;27.90;67.90;;;-144.05;28.33;125687.94;4935025;29;20131;-86
2022/09/03 11:22:22;;;;;;;1.77;1.00;;;28.20;67.70;;;-144.05;28.75;125687.94;4933332;29;20162;-88
2022/09/03 11:25:00;;;;;;;2.03;1.00;;;28.50;69.10;;;-144.05;27.80;125687.94;4949818;29;20400;-88
2022/09/03 11:27:49;;;;;;;1.20;0.98;;;28.70;66.20;;;-144.05;27.64;125687.94;4933863;29;20034;-87
2022/09/03 11:30:48;;;;;;;2.20;1.05;;;29.00;66.20;;;-144.05;27.83;125687.94;4937483;29;20039;-85
2022/09/03 11:33:24;;;;;;;4.63;1.20;;;29.40;67.10;;;-144.05;27.66;125687.94;4952591;29;20038;-87
2022/09/03 11:36:09;;;;;;;1.88;1.10;;;29.20;64.90;;;-144.05;28.02;125687.94;4936298;29;21569;-86